createdAt,value
2023-05-04T00:01:05.002Z,25.83
2023-05-04T00:06:08.196Z,25.10
2023-05-04T00:11:10.897Z,26.35
2023-05-04T00:16:13.662Z,26.10
2023-05-04T00:21:16.552Z,59.35
2023-05-04T00:26:19.422Z,41.03
2023-05-04T00:31:25.463Z,48.50
2023-05-04T00:36:28.305Z,48.77
2023-05-04T00:41:32.712Z,47.37
2023-05-04T00:46:37.289Z,21.08
2023-05-04T00:51:41.376Z,16.25
2023-05-04T00:56:45.941Z,18.45
2023-05-04T01:01:50.872Z,14.32
2023-05-04T01:07:05.063Z,16.77
2023-05-04T01:12:28.251Z,16.88
2023-05-04T01:17:32.712Z,15.20
2023-05-04T01:22:37.838Z,17.37
2023-05-04T01:27:47.803Z,17.95
2023-05-04T01:32:51.809Z,15.77
2023-05-04T01:37:55.144Z,15.00
2023-05-04T01:43:00.914Z,16.95
2023-05-04T01:48:11.900Z,16.35
2023-05-04T01:53:14.849Z,16.55
2023-05-04T01:58:18.878Z,16.50
2023-05-04T02:03:21.778Z,13.40
2023-05-04T02:08:26.184Z,15.43
2023-05-04T02:13:31.734Z,15.45
2023-05-04T02:18:34.776Z,13.30
2023-05-04T02:23:37.461Z,12.73
2023-05-04T02:28:40.481Z,8.93
2023-05-04T02:33:46.281Z,18.73
2023-05-04T02:38:49.087Z,16.10
2023-05-04T02:43:51.929Z,16.35
2023-05-04T02:48:54.794Z,16.47
2023-05-04T02:54:00.252Z,20.98
2023-05-04T02:59:03.001Z,17.58
2023-05-04T03:04:07.606Z,29.40
2023-05-04T03:09:10.838Z,25.35
2023-05-04T03:14:13.607Z,26.60
2023-05-04T03:19:22.335Z,23.67
2023-05-04T03:24:25.782Z,20.85
2023-05-04T03:29:29.884Z,19.17
2023-05-04T03:34:33.762Z,22.15
2023-05-04T03:39:40.353Z,20.30
2023-05-04T03:49:47.952Z,19.00
2023-05-04T03:54:50.928Z,24.17
2023-05-04T03:59:57.548Z,25.30
2023-05-04T04:05:01.762Z,20.45
2023-05-04T04:10:05.270Z,16.95
2023-05-04T04:15:12.690Z,16.55
2023-05-04T04:20:16.297Z,18.30
2023-05-04T04:25:20.029Z,16.52
2023-05-04T04:35:29.186Z,20.45
2023-05-04T04:40:32.775Z,20.65
2023-05-04T04:45:36.634Z,17.45
2023-05-04T04:50:42.464Z,16.83
2023-05-04T04:55:45.465Z,18.58
2023-05-04T05:00:48.288Z,15.82
2023-05-04T05:05:51.102Z,14.60
2023-05-04T05:10:58.045Z,16.07
2023-05-04T05:16:00.757Z,12.75
2023-05-04T05:21:03.805Z,18.07
2023-05-04T05:26:09.571Z,16.38
2023-05-04T05:31:15.258Z,12.82
2023-05-04T05:36:19.261Z,17.50
2023-05-04T05:46:30.959Z,15.20
2023-05-04T05:51:42.400Z,26.65
2023-05-04T05:56:45.150Z,26.27
2023-05-04T06:01:49.402Z,15.40
2023-05-04T06:06:52.648Z,12.77
2023-05-04T06:11:55.855Z,10.95
2023-05-04T06:17:00.158Z,12.63
2023-05-04T06:22:03.145Z,12.55
2023-05-04T06:27:06.061Z,12.02
2023-05-04T06:32:10.291Z,15.98
2023-05-04T06:37:16.079Z,18.23
2023-05-04T06:42:19.084Z,13.15
2023-05-04T06:47:24.476Z,14.00
2023-05-04T06:52:30.019Z,12.52
2023-05-04T06:57:32.966Z,11.77
2023-05-04T07:02:36.174Z,16.17
2023-05-04T07:07:39.132Z,11.95
2023-05-04T07:12:42.697Z,7.43
2023-05-04T07:17:47.290Z,7.65
2023-05-04T07:22:49.995Z,6.90
2023-05-04T07:27:53.294Z,8.02
2023-05-04T07:32:56.552Z,6.97
2023-05-04T07:38:00.415Z,9.88
2023-05-04T07:43:03.444Z,8.80
2023-05-04T07:48:06.629Z,8.88
2023-05-04T07:53:11.710Z,9.50
2023-05-04T07:58:17.041Z,10.98
2023-05-04T08:03:21.164Z,9.20
2023-05-04T08:08:27.509Z,8.02
2023-05-04T08:13:30.854Z,9.55
2023-05-04T08:18:33.600Z,5.97
2023-05-04T08:23:38.868Z,11.05
2023-05-04T08:28:41.972Z,9.95
2023-05-04T08:33:48.773Z,9.70
2023-05-04T08:38:54.460Z,7.45
2023-05-04T08:43:59.268Z,10.05
2023-05-04T08:49:04.530Z,10.35
2023-05-04T08:54:10.973Z,11.63
2023-05-04T08:59:22.067Z,6.53
2023-05-04T09:04:26.530Z,6.00
2023-05-04T09:09:31.995Z,23.45
2023-05-04T09:14:35.974Z,6.65
2023-05-04T09:19:44.038Z,7.18
2023-05-04T09:24:47.009Z,5.10
2023-05-04T09:29:54.475Z,6.15
2023-05-04T09:34:57.653Z,6.95
2023-05-04T09:40:00.781Z,5.40
2023-05-04T09:45:05.628Z,5.60
2023-05-04T09:50:22.698Z,5.90
2023-05-04T09:55:26.426Z,11.30
2023-05-04T10:00:29.736Z,7.53
2023-05-04T10:05:34.375Z,7.32
2023-05-04T10:10:39.010Z,8.48
2023-05-04T10:16:06.996Z,5.95
2023-05-04T10:21:31.401Z,7.25
2023-05-04T10:26:58.281Z,8.00
2023-05-04T10:32:02.824Z,5.72
2023-05-04T10:37:16.978Z,7.70
2023-05-04T10:42:21.205Z,6.53
2023-05-04T10:47:33.164Z,7.32
2023-05-04T10:52:49.326Z,5.78
2023-05-04T10:57:54.686Z,8.63
2023-05-04T11:03:04.104Z,6.63
2023-05-04T11:08:38.898Z,8.23
2023-05-04T11:13:47.576Z,6.32
2023-05-04T11:18:50.328Z,7.18
2023-05-04T11:23:59.284Z,7.88
2023-05-04T11:29:12.968Z,8.20
2023-05-04T11:34:20.379Z,8.02
2023-05-04T11:39:23.445Z,6.07
2023-05-04T11:44:29.134Z,5.32
2023-05-04T11:49:32.770Z,7.15
2023-05-04T11:54:35.660Z,7.03
2023-05-04T11:59:48.903Z,9.70
2023-05-04T12:04:52.177Z,8.02
2023-05-04T12:09:55.676Z,6.13
2023-05-04T12:15:02.782Z,5.57
2023-05-04T12:20:06.125Z,7.88
2023-05-04T12:25:09.461Z,8.77
2023-05-04T12:30:21.936Z,8.00
2023-05-04T12:35:27.395Z,4.78
2023-05-04T12:40:31.296Z,6.93
2023-05-04T12:45:34.656Z,5.85
2023-05-04T12:50:38.431Z,8.90
2023-05-04T12:55:43.006Z,6.75
2023-05-04T13:00:46.225Z,6.68
2023-05-04T13:05:50.034Z,8.25
2023-05-04T13:10:52.558Z,4.70
2023-05-04T13:16:08.284Z,6.10
2023-05-04T13:21:11.670Z,7.53
2023-05-04T13:26:14.450Z,6.05
2023-05-04T13:31:17.001Z,4.75
2023-05-04T13:36:20.470Z,7.70
2023-05-04T13:41:23.336Z,5.75
2023-05-04T13:46:25.967Z,5.97
2023-05-04T13:56:32.441Z,6.43
2023-05-04T14:06:37.739Z,7.97
2023-05-04T14:16:44.183Z,6.63
2023-05-04T14:21:50.381Z,10.02
2023-05-04T14:26:53.388Z,4.63
2023-05-04T14:31:58.330Z,5.22
2023-05-04T14:37:02.923Z,4.28
2023-05-04T14:42:07.442Z,5.57
2023-05-04T14:47:25.001Z,7.72
2023-05-04T14:52:28.264Z,5.80
2023-05-04T14:57:31.364Z,5.70
2023-05-04T15:02:39.113Z,7.40
2023-05-04T15:07:43.341Z,4.35
2023-05-04T15:12:46.729Z,6.93
2023-05-04T15:17:52.328Z,6.22
2023-05-04T15:23:03.725Z,4.30
2023-05-04T15:28:13.498Z,7.22
2023-05-04T15:33:19.385Z,4.25
2023-05-04T15:38:22.433Z,3.40
2023-05-04T15:43:32.681Z,4.15
2023-05-04T15:48:39.353Z,5.40
2023-05-04T15:53:43.366Z,5.82
2023-05-04T15:58:47.503Z,13.57
2023-05-04T16:03:54.179Z,7.32
2023-05-04T16:09:02.567Z,6.85
2023-05-04T16:14:06.526Z,6.80
2023-05-04T16:19:17.078Z,4.82
2023-05-04T16:24:21.384Z,5.85
2023-05-04T16:29:24.812Z,6.40
2023-05-04T16:34:27.617Z,5.35
2023-05-04T16:39:33.626Z,5.28
2023-05-04T16:44:36.886Z,5.68
2023-05-04T16:49:42.429Z,4.65
2023-05-04T16:54:45.360Z,5.85
2023-05-04T16:59:48.622Z,8.23
2023-05-04T17:09:58.356Z,7.10
2023-05-04T17:15:01.722Z,4.57
2023-05-04T17:20:06.404Z,7.00
2023-05-04T17:25:16.118Z,6.70
2023-05-04T17:30:24.352Z,4.27
2023-05-04T17:35:29.806Z,5.45
2023-05-04T17:40:33.955Z,7.28
2023-05-04T17:50:43.590Z,8.03
2023-05-04T17:55:48.433Z,8.05
2023-05-04T18:00:52.996Z,7.32
2023-05-04T18:05:57.121Z,5.45
2023-05-04T18:11:01.230Z,11.13
2023-05-04T18:16:04.367Z,8.57
2023-05-04T18:21:07.113Z,48.10
2023-05-04T18:26:09.826Z,24.48
2023-05-04T18:31:13.103Z,12.27
2023-05-04T18:36:20.447Z,11.35
2023-05-04T18:41:25.124Z,15.02
2023-05-04T18:46:29.731Z,21.05
2023-05-04T18:51:33.616Z,15.07
2023-05-04T18:56:37.387Z,23.85
2023-05-04T19:01:47.766Z,57.80
2023-05-04T19:06:53.982Z,86.22
2023-05-04T19:11:56.995Z,44.53
2023-05-04T19:17:01.381Z,41.83
2023-05-04T19:22:05.354Z,35.22
2023-05-04T19:27:08.458Z,56.65
2023-05-04T19:32:22.805Z,78.55
2023-05-04T19:37:27.616Z,73.97
2023-05-04T19:42:30.936Z,67.45
2023-05-04T19:47:34.004Z,66.63
2023-05-04T19:57:43.839Z,43.03
2023-05-04T20:02:47.468Z,24.30
2023-05-04T20:07:50.646Z,18.98
2023-05-04T20:12:56.817Z,17.95
2023-05-04T20:17:59.771Z,18.25
2023-05-04T20:23:03.546Z,19.83
2023-05-04T20:33:12.658Z,20.15
2023-05-04T20:38:20.445Z,19.45
2023-05-04T20:43:24.379Z,17.77
2023-05-04T20:48:27.148Z,21.23
2023-05-04T20:53:36.524Z,18.80
2023-05-04T20:58:39.528Z,20.60
2023-05-04T21:03:42.456Z,31.75
2023-05-04T21:08:47.675Z,33.03
2023-05-04T21:13:50.681Z,28.15
2023-05-04T21:18:53.528Z,29.17
2023-05-04T21:23:56.538Z,75.50
2023-05-04T21:28:59.590Z,65.35
2023-05-04T21:34:02.291Z,75.03
2023-05-04T21:39:04.984Z,55.63
2023-05-04T21:44:09.941Z,56.20
2023-05-04T21:49:13.270Z,57.60
2023-05-04T21:54:16.178Z,47.80
2023-05-04T21:59:19.164Z,50.97
2023-05-04T22:04:22.128Z,58.28
2023-05-04T22:09:25.776Z,41.63
2023-05-04T22:14:28.816Z,40.85
2023-05-04T22:19:31.717Z,37.20
2023-05-04T22:24:34.502Z,35.73
2023-05-04T22:29:37.267Z,42.35
2023-05-04T22:34:40.076Z,51.47
2023-05-04T22:39:42.853Z,58.22
2023-05-04T22:44:45.665Z,60.97
2023-05-04T22:49:48.513Z,71.87
2023-05-04T22:54:53.154Z,71.97
2023-05-04T22:59:56.008Z,60.65
2023-05-04T23:05:00.001Z,36.30
2023-05-04T23:10:03.618Z,33.90
2023-05-04T23:15:07.575Z,26.92
2023-05-04T23:20:10.894Z,29.80
2023-05-04T23:25:13.777Z,30.95
2023-05-04T23:30:16.674Z,34.00
2023-05-04T23:35:20.732Z,30.33
2023-05-04T23:40:23.506Z,27.37
2023-05-04T23:45:27.479Z,29.85
2023-05-04T23:50:34.348Z,26.38
2023-05-04T23:55:37.127Z,32.90
